Time;durP1;ratioP1;P1;durP2;ratioP2;P2;SDS_P1;SDS_P2;PMS_P1;PMS_P2;Temp;Humidity;BMP_temperature;BMP_pressure;BME280_temperature;BME280_humidity;BME280_pressure;Samples;Min_cycle;Max_cycle;Signal;HPM_P1;HPM_P2
2021/07/29 00:00:48;;;;;;;4.95;1.60;;;;;;;28.70;37.57;61827.31;4986829;28;20037;-31
2021/07/29 00:03:13;;;;;;;5.03;1.70;;;;;;;28.70;37.45;61827.31;4985170;28;20029;-31
2021/07/29 00:05:38;;;;;;;4.55;2.15;;;;;;;28.70;37.48;61827.41;4986484;28;20038;-32
2021/07/29 00:08:04;;;;;;;5.38;1.98;;;;;;;28.70;37.45;61827.09;4987588;28;20507;-32
2021/07/29 00:10:30;;;;;;;2.28;1.80;;;;;;;28.70;37.32;61827.34;4984247;28;20042;-31
2021/07/29 00:12:56;;;;;;;4.30;1.63;;;;;;;28.70;37.58;61827.09;4983564;28;20029;-31
2021/07/29 00:15:21;;;;;;;10.38;2.00;;;;;;;28.70;37.37;61827.34;5000481;28;20325;-31
2021/07/29 00:20:17;;;;;;;2.75;1.70;;;;;;;28.70;37.37;61827.03;4985137;28;20056;-35
2021/07/29 00:22:43;;;;;;;4.93;1.98;;;;;;;28.71;37.43;61827.31;4986279;28;20030;-32
2021/07/29 00:25:12;;;;;;;6.47;2.35;;;;;;;28.71;37.19;61827.25;4985632;28;20038;-31
2021/07/29 00:27:41;;;;;;;3.47;2.15;;;;;;;28.71;37.25;61827.25;4990621;28;20025;-31
2021/07/29 00:30:07;;;;;;;3.25;1.60;;;;;;;28.71;37.16;61827.25;4984813;28;20033;-32
2021/07/29 00:32:32;;;;;;;4.05;1.52;;;;;;;28.71;37.25;61827.38;4983804;28;20037;-34
2021/07/29 00:34:58;;;;;;;2.55;1.70;;;;;;;28.71;37.35;61827.53;4985054;28;20867;-32
2021/07/29 00:37:23;;;;;;;21.30;2.10;;;;;;;28.71;37.39;61827.22;4986440;28;20593;-32
2021/07/29 00:39:49;;;;;;;5.05;1.77;;;;;;;28.71;37.06;61827.00;4991270;28;20639;-32
2021/07/29 00:42:14;;;;;;;1.77;1.45;;;;;;;28.71;37.29;61826.84;4988914;28;20041;-30
2021/07/29 00:44:40;;;;;;;6.38;1.45;;;;;;;28.71;37.34;61826.84;4990826;28;20037;-33
2021/07/29 00:47:08;;;;;;;2.78;1.65;;;;;;;28.71;37.26;61826.69;4987239;28;20046;-33
2021/07/29 00:49:33;;;;;;;3.92;1.75;;;;;;;28.71;37.46;61826.53;4982753;28;20030;-35
2021/07/29 00:51:59;;;;;;;2.85;1.70;;;;;;;28.71;37.38;61826.69;4981646;28;20057;-28
2021/07/29 00:54:28;;;;;;;2.80;1.80;;;;;;;28.71;37.28;61826.34;4983128;28;20052;-30
2021/07/29 00:56:53;;;;;;;3.42;1.75;;;;;;;28.71;37.28;61826.34;4980038;28;20022;-34
2021/07/29 00:59:18;;;;;;;3.03;1.83;;;;;;;28.72;37.18;61826.47;4988769;28;20096;-32
2021/07/29 01:01:44;;;;;;;1.83;1.48;;;;;;;28.72;37.29;61826.31;4987948;28;20037;-30
2021/07/29 01:04:09;;;;;;;4.43;1.63;;;;;;;28.72;37.31;61826.31;4990754;28;20045;-33
2021/07/29 01:06:35;;;;;;;5.80;2.00;;;;;;;28.72;37.33;61826.13;4985701;28;20290;-31
2021/07/29 01:09:02;;;;;;;4.13;1.80;;;;;;;28.72;37.31;61826.31;4988681;28;20146;-30
2021/07/29 01:11:27;;;;;;;2.70;1.80;;;;;;;28.72;37.34;61826.47;4988186;28;20030;-31
2021/07/29 01:14:47;;;;;;;2.83;1.63;;;;;;;-148.56;100.00;61375.16;4985983;28;20674;-31
2021/07/29 01:17:13;;;;;;;3.45;1.90;;;;;;;-148.56;100.00;61375.16;4994312;28;20104;-31
2021/07/29 01:19:47;;;;;;;2.95;1.55;;;;;;;-148.56;100.00;61375.16;4989977;28;20077;-32
2021/07/29 01:22:15;;;;;;;3.83;2.05;;;;;;;-148.56;100.00;61375.16;4988336;28;20029;-31
2021/07/29 01:25:12;;;;;;;5.38;1.65;;;;;;;-148.56;100.00;61375.16;4991800;28;20034;-32
2021/07/29 01:27:37;;;;;;;2.78;1.65;;;;;;;28.72;37.34;61826.47;4986990;28;20053;-32
2021/07/29 01:31:01;;;;;;;3.58;2.00;;;;;;;-148.56;100.00;61375.16;4994772;28;20026;-31
2021/07/29 01:34:25;;;;;;;2.33;1.83;;;;;;;-148.56;100.00;61375.16;4983228;28;20041;-30
2021/07/29 01:37:49;;;;;;;3.60;1.67;;;;;;;-148.56;100.00;61375.16;4996884;28;20029;-31
2021/07/29 01:41:13;;;;;;;4.43;1.52;;;;;;;-148.56;100.00;61375.16;4988020;28;20041;-30
2021/07/29 01:44:37;;;;;;;2.75;1.90;;;;;;;-148.56;100.00;61375.16;4988259;28;20038;-32
2021/07/29 01:48:01;;;;;;;2.88;1.77;;;;;;;-148.56;100.00;61375.16;4996329;28;21655;-31
2021/07/29 01:51:25;;;;;;;5.97;1.92;;;;;;;-148.56;100.00;61375.16;4987660;28;20113;-31
2021/07/29 01:54:49;;;;;;;3.58;1.73;;;;;;;-148.56;100.00;61375.16;4986867;28;20057;-31
2021/07/29 01:58:13;;;;;;;2.22;1.95;;;;;;;-148.56;100.00;61375.16;4980834;28;20041;-29
2021/07/29 02:01:37;;;;;;;4.35;2.03;;;;;;;-148.56;100.00;61375.16;4990877;28;20432;-30
2021/07/29 02:05:02;;;;;;;3.10;1.95;;;;;;;-148.56;100.00;61375.16;4986831;28;21342;-31
2021/07/29 02:08:16;;;;;;;5.00;2.00;;;;;;;-148.56;100.00;61375.16;4984861;28;20064;-32
2021/07/29 02:11:40;;;;;;;3.75;1.83;;;;;;;-148.56;100.00;61375.16;5001527;28;20042;-35
2021/07/29 02:15:04;;;;;;;6.25;2.30;;;;;;;-148.56;100.00;61375.16;4986659;28;20033;-31
2021/07/29 02:18:28;;;;;;;2.72;1.77;;;;;;;-148.56;100.00;61375.16;4984929;28;20282;-32
2021/07/29 02:21:52;;;;;;;5.15;1.95;;;;;;;-148.56;100.00;61375.16;4985060;28;20304;-32
2021/07/29 02:25:16;;;;;;;9.68;1.90;;;;;;;-148.56;100.00;61375.16;4986366;28;20030;-30
2021/07/29 02:28:40;;;;;;;4.63;1.80;;;;;;;-148.56;100.00;61375.16;4985396;28;20376;-32
2021/07/29 02:32:04;;;;;;;4.68;1.65;;;;;;;-148.56;100.00;61375.16;4994814;28;20033;-31
2021/07/29 02:35:28;;;;;;;7.63;2.17;;;;;;;-148.56;100.00;61375.16;4990162;28;20032;-34
2021/07/29 02:38:51;;;;;;;5.38;2.10;;;;;;;-148.56;100.00;61375.16;4989233;28;20033;-35
2021/07/29 02:42:15;;;;;;;3.10;1.75;;;;;;;-148.56;100.00;61375.16;4982014;28;20030;-32
2021/07/29 02:45:39;;;;;;;5.15;1.92;;;;;;;-148.56;100.00;61375.16;4979646;28;20613;-31
2021/07/29 02:49:04;;;;;;;5.95;1.60;;;;;;;-148.56;100.00;61375.16;4981764;28;20030;-31
2021/07/29 02:52:28;;;;;;;3.38;1.73;;;;;;;-148.56;100.00;61375.16;4984901;28;20037;-33
2021/07/29 02:55:57;;;;;;;2.30;1.58;;;;;;;-148.56;100.00;61375.16;4986968;28;20034;-31
2021/07/29 02:59:21;;;;;;;8.55;1.70;;;;;;;-148.56;100.00;61375.16;4987770;28;20018;-33
2021/07/29 03:02:45;;;;;;;1.98;1.67;;;;;;;-148.56;100.00;61375.16;4985990;28;20030;-31
2021/07/29 03:06:09;;;;;;;2.88;1.95;;;;;;;-148.56;100.00;61375.16;4986091;28;20034;-31
2021/07/29 03:09:33;;;;;;;4.97;1.88;;;;;;;-148.56;100.00;61375.16;4984819;28;20030;-30
2021/07/29 03:12:59;;;;;;;2.88;1.85;;;;;;;-148.56;100.00;61375.16;4985169;28;20106;-36
2021/07/29 03:16:23;;;;;;;2.10;1.65;;;;;;;-148.56;100.00;61375.16;4986589;28;20109;-31
2021/07/29 03:19:47;;;;;;;2.45;1.77;;;;;;;-148.56;100.00;61375.16;4986725;28;20108;-31
2021/07/29 03:23:11;;;;;;;3.55;1.67;;;;;;;-148.56;100.00;61375.16;4981854;28;22103;-30
2021/07/29 03:26:35;;;;;;;5.90;1.80;;;;;;;-148.56;100.00;61375.16;4984446;28;20718;-33
2021/07/29 03:29:58;;;;;;;3.85;1.88;;;;;;;-148.56;100.00;61375.16;4985120;28;20048;-37
2021/07/29 03:33:22;;;;;;;5.20;1.83;;;;;;;-148.56;100.00;61375.16;4987828;28;20054;-33
2021/07/29 03:36:46;;;;;;;4.18;1.92;;;;;;;-148.56;100.00;61375.16;4988027;28;20691;-32
2021/07/29 03:40:10;;;;;;;3.80;1.55;;;;;;;-148.56;100.00;61375.16;4981169;28;20116;-31
2021/07/29 03:43:34;;;;;;;4.05;1.90;;;;;;;-148.56;100.00;61375.16;4991487;28;20040;-31
2021/07/29 03:46:58;;;;;;;4.55;2.10;;;;;;;-148.56;100.00;61375.16;4987278;28;20041;-30
2021/07/29 03:50:22;;;;;;;3.97;1.70;;;;;;;-148.56;100.00;61375.16;4985224;28;20863;-31
2021/07/29 03:53:46;;;;;;;3.90;1.90;;;;;;;-148.56;100.00;61375.16;4985207;28;20125;-31
2021/07/29 03:57:10;;;;;;;3.42;1.90;;;;;;;-148.56;100.00;61375.16;4979188;28;20157;-30
2021/07/29 04:00:34;;;;;;;4.05;2.28;;;;;;;-148.56;100.00;61375.16;5000633;28;20036;-29
2021/07/29 04:03:58;;;;;;;2.08;1.73;;;;;;;-148.56;100.00;61375.16;4988644;28;20029;-30
2021/07/29 04:07:22;;;;;;;4.28;2.15;;;;;;;-148.56;100.00;61375.16;4985230;28;20092;-30
2021/07/29 04:10:46;;;;;;;6.35;2.00;;;;;;;-148.56;100.00;61375.16;4982463;28;20030;-31
2021/07/29 04:14:09;;;;;;;3.13;1.88;;;;;;;-148.56;100.00;61375.16;4989332;28;20104;-32
2021/07/29 04:17:33;;;;;;;5.53;1.83;;;;;;;-148.56;100.00;61375.16;4993401;28;20148;-32
2021/07/29 04:20:57;;;;;;;2.83;1.75;;;;;;;-148.56;100.00;61375.16;4989303;28;20034;-30
2021/07/29 04:24:21;;;;;;;3.28;1.92;;;;;;;-148.56;100.00;61375.16;4991138;28;20073;-31
2021/07/29 04:27:45;;;;;;;5.18;2.60;;;;;;;-148.56;100.00;61375.16;4985263;28;20044;-31
2021/07/29 04:31:09;;;;;;;4.70;2.28;;;;;;;-148.56;100.00;61375.16;4991946;28;20092;-29
2021/07/29 04:34:32;;;;;;;2.40;2.05;;;;;;;-148.56;100.00;61375.16;4987896;28;20053;-31
2021/07/29 04:37:56;;;;;;;5.82;2.10;;;;;;;-148.56;100.00;61375.16;4987096;28;20097;-29
2021/07/29 04:41:20;;;;;;;2.55;1.75;;;;;;;-148.56;100.00;61375.16;4989324;28;20037;-31
2021/07/29 04:44:44;;;;;;;7.75;2.00;;;;;;;-148.56;100.00;61375.16;4988624;28;20070;-31
2021/07/29 04:48:08;;;;;;;4.15;2.13;;;;;;;-148.56;100.00;61375.16;4989306;28;20034;-32
2021/07/29 04:51:32;;;;;;;2.03;1.85;;;;;;;-148.56;100.00;61375.16;4980091;28;20042;-31
2021/07/29 04:54:56;;;;;;;5.60;1.80;;;;;;;-148.56;100.00;61375.16;4987875;28;20034;-31
2021/07/29 04:58:20;;;;;;;5.30;1.95;;;;;;;-148.56;100.00;61375.16;4987520;28;20487;-32
2021/07/29 05:01:44;;;;;;;5.53;2.13;;;;;;;-148.56;100.00;61375.16;4986416;28;20421;-31
2021/07/29 05:05:08;;;;;;;5.25;2.25;;;;;;;-148.56;100.00;61375.16;4987318;28;20026;-32
2021/07/29 05:08:32;;;;;;;4.60;1.80;;;;;;;-148.56;100.00;61375.16;4990321;28;20229;-32
2021/07/29 05:11:55;;;;;;;6.43;1.75;;;;;;;-148.56;100.00;61375.16;4985959;28;20060;-31
2021/07/29 05:15:19;;;;;;;4.00;1.90;;;;;;;-148.56;100.00;61375.16;4988885;28;20034;-29
2021/07/29 05:18:43;;;;;;;2.53;1.67;;;;;;;-148.56;100.00;61375.16;4988917;28;20032;-30
2021/07/29 05:22:07;;;;;;;5.50;1.98;;;;;;;-148.56;100.00;61375.16;4989209;28;20076;-32
2021/07/29 05:25:32;;;;;;;2.50;1.60;;;;;;;-148.56;100.00;61375.16;4988421;28;22800;-37
2021/07/29 05:28:56;;;;;;;3.22;1.90;;;;;;;-148.56;100.00;61375.16;5003154;28;20030;-34
2021/07/29 05:32:20;;;;;;;3.25;2.00;;;;;;;-148.56;100.00;61375.16;4985410;28;21350;-36
2021/07/29 05:35:44;;;;;;;2.42;1.67;;;;;;;-148.56;100.00;61375.16;4992256;28;20033;-31
2021/07/29 05:39:08;;;;;;;6.85;1.90;;;;;;;-148.56;100.00;61375.16;4999669;28;20332;-32
2021/07/29 05:42:34;;;;;;;2.38;1.60;;;;;;;-148.56;100.00;61375.16;4987480;28;20117;-32
2021/07/29 05:45:58;;;;;;;5.03;1.90;;;;;;;-148.56;100.00;61375.16;4989798;28;20033;-32
2021/07/29 05:49:22;;;;;;;5.05;1.70;;;;;;;-148.56;100.00;61375.16;4984571;28;20084;-31
2021/07/29 05:52:46;;;;;;;5.28;2.00;;;;;;;-148.56;100.00;61375.16;4984197;28;20408;-32
2021/07/29 05:56:10;;;;;;;5.22;2.00;;;;;;;-148.56;100.00;61375.16;4987894;28;20149;-31
2021/07/29 05:59:34;;;;;;;3.75;1.98;;;;;;;-148.56;100.00;61375.16;4983429;28;20030;-32
2021/07/29 06:02:59;;;;;;;5.00;1.92;;;;;;;-148.56;100.00;61375.16;4986053;28;20455;-33
2021/07/29 06:06:23;;;;;;;4.90;1.90;;;;;;;-148.56;100.00;61375.16;4987337;28;20026;-31
2021/07/29 06:09:47;;;;;;;9.90;2.40;;;;;;;-148.56;100.00;61375.16;4994422;28;20117;-31
2021/07/29 06:13:11;;;;;;;17.02;3.92;;;;;;;-148.56;100.00;61375.16;4988286;28;20032;-30
2021/07/29 06:16:34;;;;;;;13.00;3.40;;;;;;;-148.56;100.00;61375.16;4982909;28;20056;-32
2021/07/29 06:20:05;;;;;;;17.42;3.88;;;;;;;-148.56;100.00;61375.16;4979645;28;20023;-33
2021/07/29 06:23:32;;;;;;;11.95;2.90;;;;;;;-148.56;100.00;61375.16;4982242;28;20089;-35
2021/07/29 06:26:59;;;;;;;12.48;2.70;;;;;;;-148.56;100.00;61375.16;4981227;28;20458;-32
2021/07/29 06:30:23;;;;;;;9.07;2.72;;;;;;;-148.56;100.00;61375.16;4980116;28;20056;-34
2021/07/29 06:33:47;;;;;;;9.80;2.70;;;;;;;-148.56;100.00;61375.16;4984492;28;20038;-32
2021/07/29 06:37:10;;;;;;;5.75;2.55;;;;;;;-148.56;100.00;61375.16;4980980;28;20041;-32
2021/07/29 06:40:34;;;;;;;8.13;2.80;;;;;;;-148.56;100.00;61375.16;4988880;28;20452;-30
2021/07/29 06:43:59;;;;;;;9.07;2.60;;;;;;;-148.56;100.00;61375.16;4981551;28;20034;-36
2021/07/29 06:47:24;;;;;;;11.13;2.60;;;;;;;-148.56;100.00;61375.16;4982306;28;20657;-32
2021/07/29 06:50:48;;;;;;;9.80;2.53;;;;;;;-148.56;100.00;61375.16;4981458;28;20976;-31
2021/07/29 06:54:12;;;;;;;6.60;2.60;;;;;;;-148.56;100.00;61375.16;4982436;28;20608;-30
2021/07/29 06:57:36;;;;;;;5.75;2.60;;;;;;;-148.56;100.00;61375.16;4980785;28;20030;-35
2021/07/29 07:01:00;;;;;;;6.10;2.38;;;;;;;-148.56;100.00;61375.16;4980885;28;20444;-31
2021/07/29 07:04:24;;;;;;;4.30;2.25;;;;;;;-148.56;100.00;61375.16;4979183;28;20657;-30
2021/07/29 07:07:48;;;;;;;4.72;2.47;;;;;;;-148.56;100.00;61375.16;4981745;28;20117;-31
2021/07/29 07:11:16;;;;;;;3.13;2.40;;;;;;;-148.56;100.00;61375.16;4981886;28;20030;-34
2021/07/29 07:14:40;;;;;;;4.28;2.50;;;;;;;-148.56;100.00;61375.16;4982041;28;20034;-31
2021/07/29 07:18:04;;;;;;;5.97;3.90;;;;;;;-148.56;100.00;61375.16;4983485;28;20235;-33
2021/07/29 07:21:28;;;;;;;5.60;3.00;;;;;;;-148.56;100.00;61375.16;4979950;28;20022;-33
2021/07/29 07:24:52;;;;;;;5.00;2.58;;;;;;;-148.56;100.00;61375.16;4981963;28;20043;-31
2021/07/29 07:28:16;;;;;;;3.92;2.55;;;;;;;-148.56;100.00;61375.16;4983861;28;20034;-30
2021/07/29 07:31:40;;;;;;;5.80;2.60;;;;;;;-148.56;100.00;61375.16;4979727;28;20137;-31
2021/07/29 07:35:04;;;;;;;13.98;3.30;;;;;;;-148.56;100.00;61375.16;4984448;28;20025;-32
2021/07/29 07:38:28;;;;;;;12.70;2.90;;;;;;;-148.56;100.00;61375.16;4988043;28;20493;-34
2021/07/29 07:41:52;;;;;;;4.32;2.67;;;;;;;-148.56;100.00;61375.16;4992285;28;20054;-32
2021/07/29 07:45:16;;;;;;;4.10;2.80;;;;;;;-148.56;100.00;61375.16;4981797;28;20152;-30
2021/07/29 07:48:39;;;;;;;6.90;2.80;;;;;;;-148.56;100.00;61375.16;4990137;28;20033;-37
2021/07/29 07:52:05;;;;;;;4.47;2.95;;;;;;;-148.56;100.00;61375.16;4984943;28;20032;-34
2021/07/29 07:55:29;;;;;;;3.95;2.80;;;;;;;-148.56;100.00;61375.16;4984171;28;20030;-30
2021/07/29 07:58:53;;;;;;;4.80;2.90;;;;;;;-148.56;100.00;61375.16;4983216;28;20519;-29
2021/07/29 08:02:17;;;;;;;3.47;3.00;;;;;;;-148.56;100.00;61375.16;4986754;28;20141;-34
2021/07/29 08:05:41;;;;;;;6.00;2.75;;;;;;;-148.56;100.00;61375.16;4980742;28;20507;-32
2021/07/29 08:09:05;;;;;;;5.82;2.90;;;;;;;-148.56;100.00;61375.16;4991718;28;20433;-32
2021/07/29 08:12:29;;;;;;;5.43;2.78;;;;;;;-148.56;100.00;61375.16;4982921;28;20035;-32
2021/07/29 08:15:54;;;;;;;25.13;3.00;;;;;;;-148.56;100.00;61375.16;4990161;28;20030;-31
2021/07/29 08:19:18;;;;;;;5.65;2.92;;;;;;;-148.56;100.00;61375.16;4987967;28;20404;-31
2021/07/29 08:22:42;;;;;;;7.43;3.25;;;;;;;-148.56;100.00;61375.16;4981193;28;20593;-32
2021/07/29 08:26:07;;;;;;;14.73;3.40;;;;;;;-148.56;100.00;61375.16;4989840;28;20073;-33
2021/07/29 08:29:31;;;;;;;10.38;3.40;;;;;;;-148.56;100.00;61375.16;4985325;28;21310;-31
2021/07/29 08:32:56;;;;;;;17.35;4.15;;;;;;;-148.56;100.00;61375.16;5006787;28;20285;-31
2021/07/29 08:36:20;;;;;;;12.27;4.05;;;;;;;-148.56;100.00;61375.16;5000205;28;20030;-31
2021/07/29 08:39:44;;;;;;;16.02;4.78;;;;;;;-148.56;100.00;61375.16;4990994;28;20033;-29
2021/07/29 08:43:09;;;;;;;15.90;4.80;;;;;;;-148.56;100.00;61375.16;4990890;28;20792;-34
2021/07/29 08:46:36;;;;;;;17.80;5.40;;;;;;;-148.56;100.00;61375.16;5000146;28;20034;-35
2021/07/29 08:50:01;;;;;;;13.63;4.95;;;;;;;-148.56;100.00;61375.16;5009215;28;20033;-29
2021/07/29 08:53:25;;;;;;;14.90;5.13;;;;;;;-148.56;100.00;61375.16;4991258;28;20096;-34
2021/07/29 08:56:49;;;;;;;18.38;5.00;;;;;;;-148.56;100.00;61375.16;4986424;28;20049;-31
2021/07/29 09:00:13;;;;;;;17.00;4.80;;;;;;;-148.56;100.00;61375.16;5000332;28;20465;-32
2021/07/29 09:03:38;;;;;;;14.07;4.47;;;;;;;-148.56;100.00;61375.16;4990616;28;20484;-33
2021/07/29 09:07:03;;;;;;;11.77;4.82;;;;;;;-148.56;100.00;61375.16;5008214;28;20034;-34
2021/07/29 09:10:53;;;;;;;15.15;4.75;;;;;;;-148.56;100.00;61375.16;4997695;28;20045;-31
2021/07/29 09:14:19;;;;;;;14.63;4.43;;;;;;;-148.56;100.00;61375.16;5006085;28;20053;-31
2021/07/29 09:17:55;;;;;;;9.43;4.18;;;;;;;-148.56;100.00;61375.16;4992882;28;20025;-31
2021/07/29 09:21:19;;;;;;;9.15;3.95;;;;;;;-148.56;100.00;61375.16;5006225;28;20029;-30
2021/07/29 09:25:02;;;;;;;9.10;4.10;;;;;;;-148.56;100.00;61375.16;4989730;28;20033;-31
2021/07/29 09:28:39;;;;;;;8.82;3.72;;;;;;;-148.56;100.00;61375.16;4991008;28;20061;-33
2021/07/29 09:32:21;;;;;;;7.95;3.83;;;;;;;-148.56;100.00;61375.16;4990834;28;20030;-33
2021/07/29 09:35:51;;;;;;;9.15;3.65;;;;;;;-148.56;100.00;61375.16;4990431;28;20060;-31
2021/07/29 09:39:22;;;;;;;8.95;4.00;;;;;;;-148.56;100.00;61375.16;4990357;28;20041;-31
2021/07/29 09:43:05;;;;;;;7.63;3.35;;;;;;;-148.56;100.00;61375.16;4987601;28;20033;-31
2021/07/29 09:46:31;;;;;;;8.15;3.50;;;;;;;-148.56;100.00;61375.16;4988545;28;20048;-32
2021/07/29 09:49:56;;;;;;;6.38;3.10;;;;;;;-148.56;100.00;61375.16;5003948;28;20054;-31
2021/07/29 09:53:20;;;;;;;6.80;3.70;;;;;;;-148.56;100.00;61375.16;4996232;28;20030;-31
2021/07/29 09:56:43;;;;;;;4.78;3.20;;;;;;;-148.56;100.00;61375.16;4979082;28;20592;-31
2021/07/29 10:00:08;;;;;;;5.50;3.03;;;;;;;-148.56;100.00;61375.16;4977386;28;20112;-31
2021/07/29 10:03:33;;;;;;;7.07;3.40;;;;;;;-148.56;100.00;61375.16;4979516;28;20048;-31
2021/07/29 10:06:59;;;;;;;7.72;3.20;;;;;;;-148.56;100.00;61375.16;4996250;28;20026;-31
2021/07/29 10:10:25;;;;;;;6.03;3.22;;;;;;;-148.56;100.00;61375.16;4982943;28;20201;-30
2021/07/29 10:13:51;;;;;;;5.93;3.05;;;;;;;-148.56;100.00;61375.16;4995834;28;20034;-31
2021/07/29 10:17:15;;;;;;;5.78;2.90;;;;;;;-148.56;100.00;61375.16;4978913;28;20528;-31
2021/07/29 10:21:17;;;;;;;6.68;3.10;;;;;;;-148.56;100.00;61375.16;4984798;28;20503;-32
2021/07/29 10:24:55;;;;;;;6.78;3.13;;;;;;;-148.56;100.00;61375.16;4981824;28;20043;-31
2021/07/29 10:28:28;;;;;;;6.55;2.75;;;;;;;-148.56;100.00;61375.16;4979850;28;20088;-33
2021/07/29 10:31:53;;;;;;;5.55;2.75;;;;;;;-148.56;100.00;61375.16;4979141;28;20588;-32
2021/07/29 10:35:30;;;;;;;5.70;3.08;;;;;;;-148.56;100.00;61375.16;4981821;28;20030;-33
2021/07/29 10:38:54;;;;;;;6.05;3.40;;;;;;;-148.56;100.00;61375.16;4980257;28;21905;-32
2021/07/29 10:42:24;;;;;;;5.07;3.00;;;;;;;-148.56;100.00;61375.16;4998778;28;20030;-31
2021/07/29 10:45:51;;;;;;;4.15;2.70;;;;;;;-148.56;100.00;61375.16;4981224;28;20046;-32
2021/07/29 10:49:44;;;;;;;5.35;2.90;;;;;;;-148.56;100.00;61375.16;4981978;28;20407;-31
2021/07/29 10:53:11;;;;;;;5.28;2.67;;;;;;;-148.56;100.00;61375.16;4979416;28;20026;-32
2021/07/29 10:56:35;;;;;;;5.97;2.83;;;;;;;-148.56;100.00;61375.16;4987977;28;20110;-32
2021/07/29 10:59:59;;;;;;;5.78;2.90;;;;;;;-148.56;100.00;61375.16;4980709;28;20941;-33
2021/07/29 11:03:49;;;;;;;4.72;2.60;;;;;;;-148.56;100.00;61375.16;4982203;28;20088;-31
2021/07/29 11:07:22;;;;;;;7.05;3.13;;;;;;;-148.56;100.00;61375.16;4989187;28;20030;-30
2021/07/29 11:10:46;;;;;;;5.20;3.08;;;;;;;-148.56;100.00;61375.16;4984670;28;20443;-32
2021/07/29 11:14:11;;;;;;;5.47;2.80;;;;;;;-148.56;100.00;61375.16;4996801;28;20052;-32
2021/07/29 11:17:35;;;;;;;6.30;2.67;;;;;;;-148.56;100.00;61375.16;4985805;28;20523;-32
2021/07/29 11:21:11;;;;;;;3.42;2.70;;;;;;;-148.56;100.00;61375.16;4998819;28;20030;-32
2021/07/29 11:24:35;;;;;;;8.45;3.10;;;;;;;-148.56;100.00;61375.16;4984490;28;20035;-31
2021/07/29 11:28:12;;;;;;;4.78;2.78;;;;;;;-148.56;100.00;61375.16;4997906;28;20384;-30
2021/07/29 11:31:39;;;;;;;9.00;3.15;;;;;;;-148.56;100.00;61375.16;4988933;28;20032;-32
2021/07/29 11:35:04;;;;;;;5.80;3.03;;;;;;;-148.56;100.00;61375.16;4996112;28;20029;-30
2021/07/29 11:38:31;;;;;;;3.90;2.78;;;;;;;-148.56;100.00;61375.16;4990543;28;20499;-31
2021/07/29 11:41:58;;;;;;;5.47;2.88;;;;;;;-148.56;100.00;61375.16;4989520;28;20042;-31
2021/07/29 11:45:34;;;;;;;5.35;2.72;;;;;;;-148.56;100.00;61375.16;4997984;28;20022;-32
2021/07/29 11:49:07;;;;;;;4.53;2.67;;;;;;;-148.56;100.00;61375.16;4988954;28;20041;-31
2021/07/29 11:52:31;;;;;;;4.72;2.65;;;;;;;-148.56;100.00;61375.16;4985631;28;20109;-33
2021/07/29 11:56:08;;;;;;;3.95;2.80;;;;;;;-148.56;100.00;61375.16;4989024;28;20124;-31
2021/07/29 11:59:36;;;;;;;4.93;2.65;;;;;;;-148.56;100.00;61375.16;4991455;28;20033;-35
2021/07/29 12:03:04;;;;;;;5.65;2.40;;;;;;;-148.56;100.00;61375.16;4992328;28;20050;-33
2021/07/29 12:06:28;;;;;;;6.30;2.55;;;;;;;-148.56;100.00;61375.16;4989677;28;20034;-31
2021/07/29 12:09:52;;;;;;;4.28;2.50;;;;;;;-148.56;100.00;61375.16;5003096;28;20032;-32
2021/07/29 12:13:18;;;;;;;3.33;2.25;;;;;;;-148.56;100.00;61375.16;5001341;28;20727;-32
2021/07/29 12:16:46;;;;;;;3.97;2.40;;;;;;;-148.56;100.00;61375.16;4984924;28;20034;-30
2021/07/29 12:20:12;;;;;;;7.07;2.78;;;;;;;-148.56;100.00;61375.16;4997276;28;20034;-31
2021/07/29 12:23:36;;;;;;;3.65;2.47;;;;;;;-148.56;100.00;61375.16;4983379;28;20030;-30
2021/07/29 12:27:10;;;;;;;3.10;2.45;;;;;;;-148.56;100.00;61375.16;4985811;28;20034;-32
2021/07/29 12:30:41;;;;;;;3.95;2.28;;;;;;;-148.56;100.00;61375.16;5003275;28;20064;-31
2021/07/29 12:34:09;;;;;;;3.17;2.35;;;;;;;-148.56;100.00;61375.16;4988813;28;20512;-31
2021/07/29 12:37:45;;;;;;;2.85;2.20;;;;;;;-148.56;100.00;61375.16;4995115;28;20037;-33
2021/07/29 12:41:30;;;;;;;4.07;2.33;;;;;;;-148.56;100.00;61375.16;4990166;28;20026;-31
2021/07/29 12:45:23;;;;;;;3.85;2.40;;;;;;;-148.56;100.00;61375.16;5009829;28;20034;-30
2021/07/29 12:49:03;;;;;;;5.43;2.22;;;;;;;-148.56;100.00;61375.16;5005158;28;20022;-32
2021/07/29 12:52:43;;;;;;;3.72;2.17;;;;;;;-148.56;100.00;61375.16;4993378;28;20041;-31
2021/07/29 12:56:13;;;;;;;3.20;2.30;;;;;;;-148.56;100.00;61375.16;5006917;28;20093;-33
2021/07/29 12:59:37;;;;;;;3.15;2.00;;;;;;;-148.56;100.00;61375.16;5005877;28;20037;-30
2021/07/29 13:03:00;;;;;;;3.22;2.10;;;;;;;-148.56;100.00;61375.16;4992709;28;20030;-31
2021/07/29 13:06:24;;;;;;;3.17;2.17;;;;;;;-148.56;100.00;61375.16;4990129;28;20117;-33
2021/07/29 13:09:53;;;;;;;3.15;2.17;;;;;;;-148.56;100.00;61375.16;4992952;28;20475;-32
2021/07/29 13:13:22;;;;;;;3.72;2.17;;;;;;;-148.56;100.00;61375.16;4992981;28;20028;-29
2021/07/29 13:16:46;;;;;;;3.65;2.13;;;;;;;-148.56;100.00;61375.16;4993047;28;20451;-30
2021/07/29 13:20:10;;;;;;;3.63;2.13;;;;;;;-148.56;100.00;61375.16;4993210;28;20065;-30
2021/07/29 13:23:34;;;;;;;3.00;1.90;;;;;;;-148.56;100.00;61375.16;4989077;28;20026;-33
2021/07/29 13:26:58;;;;;;;5.82;2.22;;;;;;;-148.56;100.00;61375.16;4999047;28;20030;-32
2021/07/29 13:30:22;;;;;;;2.50;2.20;;;;;;;-148.56;100.00;61375.16;4991171;28;20029;-32
2021/07/29 13:33:45;;;;;;;2.42;2.03;;;;;;;-148.56;100.00;61375.16;4991534;28;20484;-33
2021/07/29 13:37:09;;;;;;;2.42;2.00;;;;;;;-148.56;100.00;61375.16;5001365;28;20112;-30
2021/07/29 13:40:33;;;;;;;2.45;1.92;;;;;;;-148.56;100.00;61375.16;4991511;28;20537;-31
2021/07/29 13:44:00;;;;;;;1.92;1.70;;;;;;;-148.56;100.00;61375.16;4990652;28;20019;-31
2021/07/29 13:47:24;;;;;;;2.67;1.77;;;;;;;-148.56;100.00;61375.16;4989815;28;20042;-32
2021/07/29 13:50:47;;;;;;;2.60;2.00;;;;;;;-148.56;100.00;61375.16;4994054;28;20022;-32
2021/07/29 13:54:11;;;;;;;2.25;1.80;;;;;;;-148.56;100.00;61375.16;4987346;28;20021;-31
2021/07/29 13:57:35;;;;;;;2.50;2.00;;;;;;;-148.56;100.00;61375.16;4990346;28;20044;-30
2021/07/29 14:00:59;;;;;;;3.53;1.90;;;;;;;-148.56;100.00;61375.16;4989186;28;20058;-34
2021/07/29 14:04:23;;;;;;;2.83;1.90;;;;;;;-148.56;100.00;61375.16;4998144;28;20033;-31
2021/07/29 14:07:47;;;;;;;3.15;2.00;;;;;;;-148.56;100.00;61375.16;4990142;28;20034;-31
2021/07/29 14:11:11;;;;;;;1.55;1.45;;;;;;;-148.56;100.00;61375.16;4989597;28;20890;-30
2021/07/29 14:14:35;;;;;;;2.03;1.60;;;;;;;-148.56;100.00;61375.16;4997609;28;20037;-31
2021/07/29 14:18:00;;;;;;;2.08;1.60;;;;;;;-148.56;100.00;61375.16;4988932;28;20033;-31
2021/07/29 14:21:33;;;;;;;2.17;1.90;;;;;;;-148.56;100.00;61375.16;4991044;28;20041;-31
2021/07/29 14:24:57;;;;;;;2.80;1.70;;;;;;;-148.56;100.00;61375.16;4990748;28;20045;-29
2021/07/29 14:28:21;;;;;;;1.75;1.50;;;;;;;-148.56;100.00;61375.16;5005379;28;20038;-31
2021/07/29 14:31:45;;;;;;;1.92;1.63;;;;;;;-148.56;100.00;61375.16;5005487;28;20104;-34
2021/07/29 14:35:09;;;;;;;1.65;1.45;;;;;;;-148.56;100.00;61375.16;4991794;28;20026;-32
2021/07/29 14:38:33;;;;;;;2.40;1.83;;;;;;;-148.56;100.00;61375.16;4989397;28;20714;-32
2021/07/29 14:41:56;;;;;;;2.60;1.88;;;;;;;-148.56;100.00;61375.16;4986662;28;20038;-31
2021/07/29 14:52:23;;;;;;;2.08;1.80;;;;;;;-148.56;100.00;61375.16;4997364;28;20420;-31
2021/07/29 14:56:01;;;;;;;2.35;1.65;;;;;;;-148.56;100.00;61375.16;4986477;28;20025;-31
2021/07/29 16:10:04;;;;;;;1.40;1.30;;;;;;;-148.56;100.00;61375.16;4990360;28;19925;-33
2021/07/29 16:13:29;;;;;;;2.15;1.30;;;;;;;-148.56;100.00;61375.16;5005044;28;20484;-31
2021/07/29 16:16:53;;;;;;;3.53;1.30;;;;;;;-148.56;100.00;61375.16;5010189;28;20037;-30
2021/07/29 16:20:17;;;;;;;1.65;1.40;;;;;;;-148.56;100.00;61375.16;5004467;28;20259;-37
2021/07/29 16:23:41;;;;;;;1.35;1.23;;;;;;;-148.56;100.00;61375.16;4990984;28;20048;-31
2021/07/29 16:27:04;;;;;;;1.25;1.15;;;;;;;-148.56;100.00;61375.16;4992186;28;20026;-31